createdAt,value
2022-08-28T00:00:52.794Z,22.72
2022-08-28T00:01:54.631Z,22.69
2022-08-28T00:02:56.650Z,22.68
2022-08-28T00:03:59.504Z,22.59
2022-08-28T00:05:01.850Z,22.59
2022-08-28T00:06:03.592Z,22.59
2022-08-28T00:07:05.236Z,22.57
2022-08-28T00:08:07.367Z,22.57
2022-08-28T00:09:08.978Z,22.54
2022-08-28T00:10:15.686Z,22.49
2022-08-28T00:11:17.531Z,22.52
2022-08-28T00:12:19.509Z,22.47
2022-08-28T00:13:21.937Z,22.51
2022-08-28T00:14:23.850Z,22.47
2022-08-28T00:15:31.044Z,22.44
2022-08-28T00:16:33.637Z,22.41
2022-08-28T00:17:35.491Z,22.44
2022-08-28T00:18:39.099Z,22.41
2022-08-28T00:19:40.777Z,22.43
2022-08-28T00:20:42.551Z,22.40
2022-08-28T00:21:44.681Z,22.35
2022-08-28T00:22:46.476Z,22.34
2022-08-28T00:23:48.432Z,22.25
2022-08-28T00:24:50.043Z,22.20
2022-08-28T00:25:56.816Z,22.14
2022-08-28T00:27:16.903Z,22.16
2022-08-28T00:28:23.774Z,22.07
2022-08-28T00:29:26.148Z,22.06
2022-08-28T00:30:30.947Z,22.07
2022-08-28T00:31:33.466Z,22.01
2022-08-28T00:32:35.695Z,22.04
2022-08-28T00:33:37.300Z,21.93
2022-08-28T00:34:39.186Z,21.92
2022-08-28T00:35:41.367Z,21.90
2022-08-28T00:36:43.092Z,21.89
2022-08-28T00:37:48.149Z,21.89
2022-08-28T00:38:50.556Z,21.84
2022-08-28T00:39:52.199Z,21.84
2022-08-28T00:40:56.174Z,21.83
2022-08-28T00:41:58.237Z,21.82
2022-08-28T00:43:02.227Z,21.74
2022-08-28T00:44:15.355Z,21.67
2022-08-28T00:45:17.871Z,21.65
2022-08-28T00:46:21.999Z,21.57
2022-08-28T00:47:25.222Z,21.56
2022-08-28T00:48:27.225Z,21.53
2022-08-28T00:49:30.708Z,21.50
2022-08-28T00:50:51.943Z,21.46
2022-08-28T00:52:05.897Z,21.43
2022-08-28T00:53:07.497Z,21.39
2022-08-28T00:54:09.183Z,21.41
2022-08-28T00:55:13.980Z,21.41
2022-08-28T00:56:15.654Z,21.33
2022-08-28T00:57:20.554Z,21.33
2022-08-28T00:58:29.365Z,21.28
2022-08-28T00:59:30.992Z,21.29
2022-08-28T01:00:35.148Z,21.28
2022-08-28T01:01:38.951Z,21.29
2022-08-28T01:02:41.253Z,21.32
2022-08-28T01:03:43.497Z,21.32
2022-08-28T01:04:45.118Z,21.32
2022-08-28T01:05:49.232Z,21.35
2022-08-28T01:06:54.194Z,21.42
2022-08-28T01:07:59.316Z,21.39
2022-08-28T01:09:01.049Z,21.42
2022-08-28T01:10:02.882Z,21.42
2022-08-28T01:11:04.831Z,21.42
2022-08-28T01:12:14.611Z,21.39
2022-08-28T01:13:16.391Z,21.32
2022-08-28T01:14:19.986Z,21.36
2022-08-28T01:15:24.357Z,21.39
2022-08-28T01:16:33.014Z,21.41
2022-08-28T01:17:35.820Z,21.42
2022-08-28T01:18:42.120Z,21.43
2022-08-28T01:19:48.414Z,21.42
2022-08-28T01:21:24.522Z,21.39
2022-08-28T01:22:39.404Z,21.35
2022-08-28T01:23:41.051Z,21.33
2022-08-28T01:24:43.899Z,21.36
2022-08-28T01:25:45.535Z,21.36
2022-08-28T01:26:47.462Z,21.31
2022-08-28T01:27:49.088Z,21.32
2022-08-28T01:28:52.138Z,21.26
2022-08-28T01:29:53.837Z,21.23
2022-08-28T01:30:55.509Z,21.22
2022-08-28T01:31:57.231Z,21.22
2022-08-28T01:32:58.915Z,21.19
2022-08-28T01:34:01.139Z,21.21
2022-08-28T01:35:04.232Z,21.21
2022-08-28T01:36:06.115Z,21.23
2022-08-28T01:37:07.740Z,21.23
2022-08-28T01:38:09.399Z,21.21
2022-08-28T01:39:16.222Z,21.18
2022-08-28T01:40:23.100Z,21.22
2022-08-28T01:41:25.244Z,21.22
2022-08-28T01:42:26.912Z,21.21
2022-08-28T01:43:28.772Z,21.21
2022-08-28T01:44:30.381Z,21.22
2022-08-28T01:45:32.127Z,21.18
2022-08-28T01:46:33.884Z,21.16
2022-08-28T01:47:35.567Z,21.14
2022-08-28T01:48:39.360Z,21.12
2022-08-28T01:49:40.997Z,21.09
2022-08-28T01:50:42.831Z,21.12
2022-08-28T01:51:44.494Z,21.09
2022-08-28T01:52:46.341Z,21.06
2022-08-28T01:53:48.053Z,21.11
2022-08-28T01:54:50.372Z,21.11
2022-08-28T01:55:55.229Z,21.05
2022-08-28T01:56:57.379Z,21.01
2022-08-28T01:57:59.012Z,21.05
2022-08-28T01:59:01.615Z,21.05
2022-08-28T02:00:03.598Z,20.98
2022-08-28T02:01:10.781Z,21.05
2022-08-28T02:02:12.858Z,21.01
2022-08-28T02:03:14.539Z,20.99
2022-08-28T02:04:16.627Z,21.02
2022-08-28T02:05:19.505Z,21.02
2022-08-28T02:06:21.236Z,21.04
2022-08-28T02:07:22.857Z,21.02
2022-08-28T02:08:24.464Z,21.05
2022-08-28T02:09:26.093Z,21.02
2022-08-28T02:10:28.152Z,21.04
2022-08-28T02:11:32.303Z,21.06
2022-08-28T02:12:34.016Z,21.05
2022-08-28T02:13:36.212Z,21.05
2022-08-28T02:14:39.004Z,21.02
2022-08-28T02:15:41.539Z,21.02
2022-08-28T02:16:43.215Z,21.01
2022-08-28T02:17:44.949Z,20.98
2022-08-28T02:18:46.804Z,20.91
2022-08-28T02:19:48.583Z,20.88
2022-08-28T02:20:50.592Z,20.84
2022-08-28T02:21:52.354Z,20.87
2022-08-28T02:22:53.998Z,20.81
2022-08-28T02:23:55.628Z,20.80
2022-08-28T02:24:57.271Z,20.74
2022-08-28T02:25:58.935Z,20.78
2022-08-28T02:27:01.608Z,20.77
2022-08-28T02:28:03.407Z,20.78
2022-08-28T02:29:05.193Z,20.82
2022-08-28T02:30:08.300Z,20.77
2022-08-28T02:31:10.295Z,20.80
2022-08-28T02:32:12.572Z,20.81
2022-08-28T02:33:14.881Z,20.81
2022-08-28T02:34:16.493Z,20.82
2022-08-28T02:35:18.873Z,20.87
2022-08-28T02:36:20.604Z,20.88
2022-08-28T02:37:24.381Z,20.87
2022-08-28T02:38:26.838Z,20.85
2022-08-28T02:39:28.518Z,20.85
2022-08-28T02:40:30.232Z,20.87
2022-08-28T02:41:32.468Z,20.87
2022-08-28T02:42:34.114Z,20.84
2022-08-28T02:43:35.802Z,20.77
2022-08-28T02:44:37.873Z,20.78
2022-08-28T02:45:39.495Z,20.71
2022-08-28T02:46:41.161Z,20.70
2022-08-28T02:47:43.747Z,20.70
2022-08-28T02:48:45.713Z,20.68
2022-08-28T02:49:47.329Z,20.70
2022-08-28T02:50:48.943Z,20.68
2022-08-28T02:51:51.210Z,20.68
2022-08-28T02:52:52.825Z,20.67
2022-08-28T02:53:54.464Z,20.65
2022-08-28T02:54:56.087Z,20.64
2022-08-28T02:55:57.821Z,20.61
2022-08-28T02:56:59.521Z,20.63
2022-08-28T02:58:01.209Z,20.67
2022-08-28T02:59:02.853Z,20.67
2022-08-28T03:00:06.303Z,20.65
2022-08-28T03:01:10.942Z,20.57
2022-08-28T03:02:13.077Z,20.55
2022-08-28T03:03:14.689Z,20.48
2022-08-28T03:04:16.601Z,20.50
2022-08-28T03:05:21.682Z,20.47
2022-08-28T03:06:23.313Z,20.47
2022-08-28T03:07:24.963Z,20.48
2022-08-28T03:08:27.409Z,20.44
2022-08-28T03:09:29.308Z,20.43
2022-08-28T03:10:30.924Z,20.45
2022-08-28T03:11:32.539Z,20.47
2022-08-28T03:12:34.964Z,20.44
2022-08-28T03:13:36.579Z,20.40
2022-08-28T03:14:38.182Z,20.44
2022-08-28T03:15:43.719Z,20.39
2022-08-28T03:16:47.277Z,20.40
2022-08-28T03:17:49.606Z,20.39
2022-08-28T03:18:52.078Z,20.39
2022-08-28T03:19:53.836Z,20.40
2022-08-28T03:20:55.999Z,20.36
2022-08-28T03:21:57.608Z,20.36
2022-08-28T03:23:17.704Z,20.34
2022-08-28T03:24:19.485Z,20.34
2022-08-28T03:25:22.424Z,20.33
2022-08-28T03:26:24.487Z,20.31
2022-08-28T03:27:26.141Z,20.31
2022-08-28T03:28:32.384Z,20.29
2022-08-28T03:29:34.009Z,20.31
2022-08-28T03:30:35.644Z,20.31
2022-08-28T03:31:39.042Z,20.31
2022-08-28T03:32:40.683Z,20.29
2022-08-28T03:33:42.876Z,20.23
2022-08-28T03:34:45.086Z,20.30
2022-08-28T03:35:46.702Z,20.27
2022-08-28T03:36:48.312Z,20.23
2022-08-28T03:37:50.015Z,20.26
2022-08-28T03:38:52.713Z,20.21
2022-08-28T03:39:54.399Z,20.27
2022-08-28T03:40:56.151Z,20.26
2022-08-28T03:41:57.759Z,20.26
2022-08-28T03:42:59.433Z,20.27
2022-08-28T03:44:01.345Z,20.29
2022-08-28T03:45:03.030Z,20.31
2022-08-28T03:46:05.685Z,20.26
2022-08-28T03:47:07.389Z,20.20
2022-08-28T03:48:09.115Z,20.21
2022-08-28T03:49:11.076Z,20.19
2022-08-28T03:50:13.498Z,20.17
2022-08-28T03:51:17.525Z,20.21
2022-08-28T03:52:19.314Z,20.23
2022-08-28T03:53:25.346Z,20.21
2022-08-28T03:54:27.044Z,20.16
2022-08-28T03:55:29.077Z,20.21
2022-08-28T03:56:31.242Z,20.19
2022-08-28T03:57:32.884Z,20.19
2022-08-28T03:58:34.498Z,20.20
2022-08-28T03:59:36.168Z,20.19
2022-08-28T04:00:39.910Z,20.20
2022-08-28T04:01:41.644Z,20.24
2022-08-28T04:02:43.601Z,20.17
2022-08-28T04:03:45.478Z,20.26
2022-08-28T04:04:47.948Z,20.19
2022-08-28T04:05:49.636Z,20.17
2022-08-28T04:06:51.282Z,20.20
2022-08-28T04:07:53.473Z,20.19
2022-08-28T04:08:55.445Z,20.21
2022-08-28T04:10:02.067Z,20.19
2022-08-28T04:11:03.915Z,20.23
2022-08-28T04:12:05.786Z,20.23
2022-08-28T04:13:07.434Z,20.27
2022-08-28T04:14:10.076Z,20.27
2022-08-28T04:15:12.313Z,20.27
2022-08-28T04:16:16.743Z,20.29
2022-08-28T04:17:18.474Z,20.36
2022-08-28T04:18:20.092Z,20.33
2022-08-28T04:19:21.762Z,20.33
2022-08-28T04:20:23.490Z,20.31
2022-08-28T04:21:26.863Z,20.33
2022-08-28T04:22:29.983Z,20.31
2022-08-28T04:23:31.711Z,20.31
2022-08-28T04:24:33.403Z,20.33
2022-08-28T04:25:35.011Z,20.29
2022-08-28T04:26:36.838Z,20.27
2022-08-28T04:27:38.650Z,20.27
2022-08-28T04:28:41.631Z,20.30
2022-08-28T04:29:43.231Z,20.33
2022-08-28T04:30:44.880Z,20.33
2022-08-28T04:31:46.573Z,20.31
2022-08-28T04:32:48.286Z,20.31
2022-08-28T04:33:49.901Z,20.33
2022-08-28T04:34:51.550Z,20.27
2022-08-28T04:35:53.189Z,20.31
2022-08-28T04:36:54.780Z,20.33
2022-08-28T04:37:58.826Z,20.29
2022-08-28T04:39:00.905Z,20.33
2022-08-28T04:40:05.506Z,20.34
2022-08-28T04:41:08.147Z,20.37
2022-08-28T04:42:09.882Z,20.36
2022-08-28T04:43:11.648Z,20.40
2022-08-28T04:44:13.255Z,20.43
2022-08-28T04:45:14.885Z,20.45
2022-08-28T04:46:16.784Z,20.48
2022-08-28T04:47:18.497Z,20.50
2022-08-28T04:48:20.093Z,20.45
2022-08-28T04:49:21.735Z,20.47
2022-08-28T04:50:27.506Z,20.51
2022-08-28T04:51:30.510Z,20.52
2022-08-28T04:52:32.121Z,20.54
2022-08-28T04:53:33.795Z,20.57
2022-08-28T04:54:35.912Z,20.60
2022-08-28T04:55:53.671Z,20.64
2022-08-28T04:56:56.500Z,20.70
2022-08-28T04:57:58.136Z,20.72
2022-08-28T04:59:00.819Z,20.78
2022-08-28T05:00:03.219Z,20.77
2022-08-28T05:01:16.220Z,20.87
2022-08-28T05:02:17.971Z,20.90
2022-08-28T05:03:19.855Z,20.94
2022-08-28T05:04:21.529Z,20.96
2022-08-28T05:05:23.154Z,20.96
2022-08-28T05:06:28.099Z,21.04
2022-08-28T05:07:29.894Z,21.05
2022-08-28T05:08:31.896Z,21.09
2022-08-28T05:09:34.972Z,21.05
2022-08-28T05:10:36.722Z,21.11
2022-08-28T05:11:38.402Z,21.14
2022-08-28T05:12:40.063Z,21.18
2022-08-28T05:13:41.927Z,21.16
2022-08-28T05:14:43.823Z,21.19
2022-08-28T05:15:47.229Z,21.23
2022-08-28T05:16:50.441Z,21.31
2022-08-28T05:17:52.060Z,21.39
2022-08-28T05:18:53.666Z,21.42
2022-08-28T05:19:55.273Z,21.50
2022-08-28T05:20:57.303Z,21.62
2022-08-28T05:21:59.202Z,21.69
2022-08-28T05:23:00.820Z,21.72
2022-08-28T05:24:02.658Z,21.77
2022-08-28T05:25:04.517Z,21.90
2022-08-28T05:26:06.895Z,22.00
2022-08-28T05:27:09.298Z,21.97
2022-08-28T05:28:12.153Z,22.13
2022-08-28T05:29:14.422Z,22.28
2022-08-28T05:30:16.103Z,22.47
2022-08-28T05:31:19.761Z,22.62
2022-08-28T05:32:21.485Z,23.08
2022-08-28T05:33:23.101Z,23.47
2022-08-28T05:34:24.974Z,23.93
2022-08-28T05:35:27.294Z,24.45
2022-08-28T05:36:32.751Z,24.79
2022-08-28T05:37:35.540Z,25.04
2022-08-28T05:38:37.276Z,25.07
2022-08-28T05:39:38.969Z,25.28
2022-08-28T05:40:45.423Z,25.33
2022-08-28T05:41:47.356Z,25.44
2022-08-28T05:42:49.828Z,25.67
2022-08-28T05:43:51.549Z,25.92
2022-08-28T05:44:54.759Z,26.25
2022-08-28T05:46:00.735Z,26.53
2022-08-28T05:47:03.086Z,26.53
2022-08-28T05:48:04.991Z,26.52
2022-08-28T05:49:10.090Z,26.48
2022-08-28T05:50:13.731Z,26.29
2022-08-28T05:51:17.685Z,26.32
2022-08-28T05:52:21.022Z,26.32
2022-08-28T05:53:23.188Z,26.05
2022-08-28T05:54:24.817Z,25.81
2022-08-28T05:55:26.440Z,25.85
2022-08-28T05:56:30.100Z,25.92
2022-08-28T05:57:31.797Z,25.95
2022-08-28T05:58:34.759Z,25.80
2022-08-28T05:59:36.372Z,25.82
2022-08-28T06:00:38.492Z,25.88
2022-08-28T06:01:42.237Z,25.80
2022-08-28T06:02:44.991Z,25.65
2022-08-28T06:03:55.238Z,25.64
2022-08-28T06:04:57.847Z,25.61
2022-08-28T06:06:00.549Z,25.48
2022-08-28T06:07:02.284Z,25.41
2022-08-28T06:08:03.920Z,25.54
2022-08-28T06:09:16.001Z,25.47
2022-08-28T06:10:17.705Z,25.54
2022-08-28T06:11:21.513Z,25.57
2022-08-28T06:12:26.066Z,25.57
2022-08-28T06:13:28.157Z,25.64
2022-08-28T06:14:31.675Z,25.55
2022-08-28T06:15:34.170Z,25.43
2022-08-28T06:16:36.378Z,25.41
2022-08-28T06:17:38.076Z,25.37
2022-08-28T06:18:39.781Z,25.36
2022-08-28T06:19:41.850Z,25.31
2022-08-28T06:20:44.978Z,25.24
2022-08-28T06:21:51.623Z,25.22
2022-08-28T06:22:53.281Z,25.14
2022-08-28T06:23:54.984Z,25.07
2022-08-28T06:24:56.653Z,25.04
2022-08-28T06:25:58.471Z,24.99
2022-08-28T06:27:00.147Z,24.85
2022-08-28T06:28:01.776Z,24.83
2022-08-28T06:29:05.445Z,24.72
2022-08-28T06:30:08.965Z,24.73
2022-08-28T06:31:24.071Z,24.83
2022-08-28T06:32:26.883Z,24.89
2022-08-28T06:33:28.524Z,24.97
2022-08-28T06:34:30.666Z,25.13
2022-08-28T06:35:32.520Z,25.23
2022-08-28T06:36:35.093Z,25.36
2022-08-28T06:37:36.734Z,25.43
2022-08-28T06:38:38.481Z,25.54
2022-08-28T06:39:40.202Z,25.61
2022-08-28T06:40:47.235Z,25.63
2022-08-28T06:41:48.872Z,25.73
2022-08-28T06:42:50.480Z,25.71
2022-08-28T06:43:52.091Z,25.75
2022-08-28T06:44:53.781Z,25.70
2022-08-28T06:45:56.230Z,25.71
2022-08-28T06:46:57.979Z,25.74
2022-08-28T06:47:59.652Z,25.75
2022-08-28T06:49:04.638Z,25.74
2022-08-28T06:50:06.732Z,25.81
2022-08-28T06:51:09.591Z,25.88
2022-08-28T06:52:11.207Z,25.82
2022-08-28T06:53:15.013Z,25.82
2022-08-28T06:54:22.186Z,25.84
2022-08-28T06:55:25.164Z,25.88
2022-08-28T06:56:27.206Z,25.92
2022-08-28T06:57:28.936Z,25.89
2022-08-28T06:58:31.195Z,25.92
2022-08-28T06:59:33.310Z,25.92
2022-08-28T07:00:35.831Z,25.91
2022-08-28T07:01:37.784Z,25.85
2022-08-28T07:02:39.519Z,25.84
2022-08-28T07:03:42.535Z,25.87
2022-08-28T07:04:45.283Z,25.95
2022-08-28T07:05:46.906Z,25.95
2022-08-28T07:06:54.818Z,25.92
2022-08-28T07:07:56.633Z,25.85
2022-08-28T07:08:58.297Z,25.85
2022-08-28T07:09:59.927Z,25.88
2022-08-28T07:11:09.942Z,25.88
2022-08-28T07:12:14.610Z,25.96
2022-08-28T07:13:16.241Z,26.08
2022-08-28T07:14:17.878Z,26.14
2022-08-28T07:15:19.603Z,26.19
2022-08-28T07:16:23.198Z,26.19
2022-08-28T07:17:24.945Z,26.24
2022-08-28T07:18:26.562Z,26.28
2022-08-28T07:19:28.290Z,26.29
2022-08-28T07:20:29.891Z,26.31
2022-08-28T07:21:38.270Z,26.25
2022-08-28T07:22:43.909Z,26.19
2022-08-28T07:23:46.182Z,26.19
2022-08-28T07:24:47.929Z,26.24
2022-08-28T07:25:49.542Z,26.25
2022-08-28T07:26:51.235Z,26.22
2022-08-28T07:27:52.899Z,26.08
2022-08-28T07:29:10.406Z,26.16
2022-08-28T07:30:13.364Z,26.11
2022-08-28T07:31:17.344Z,26.08
2022-08-28T07:32:21.944Z,26.09
2022-08-28T07:33:23.957Z,26.05
2022-08-28T07:34:27.269Z,26.06
2022-08-28T07:35:29.265Z,26.05
2022-08-28T07:36:30.991Z,26.05
2022-08-28T07:37:32.616Z,26.05
2022-08-28T07:38:36.108Z,26.14
2022-08-28T07:39:37.788Z,26.18
2022-08-28T07:40:39.516Z,26.28
2022-08-28T07:41:43.045Z,26.38
2022-08-28T07:43:03.255Z,26.43
2022-08-28T07:44:23.689Z,26.43
2022-08-28T07:45:25.763Z,26.46
2022-08-28T07:46:27.483Z,26.52
2022-08-28T07:47:33.076Z,26.57
2022-08-28T07:48:35.581Z,26.56
2022-08-28T07:49:37.554Z,26.64
2022-08-28T07:50:39.193Z,26.66
2022-08-28T07:51:43.090Z,26.80
2022-08-28T07:52:48.451Z,26.90
2022-08-28T07:53:50.758Z,26.84
2022-08-28T07:54:52.685Z,26.79
2022-08-28T07:55:54.325Z,26.76
2022-08-28T07:56:55.998Z,26.82
2022-08-28T07:57:57.654Z,26.76
2022-08-28T07:59:00.275Z,26.76
2022-08-28T08:00:02.128Z,26.75
2022-08-28T08:01:04.234Z,26.73
2022-08-28T08:02:06.106Z,26.79
2022-08-28T08:03:07.851Z,26.83
2022-08-28T08:04:11.041Z,26.87
2022-08-28T08:05:13.137Z,26.87
2022-08-28T08:06:16.326Z,26.89
2022-08-28T08:07:18.210Z,26.83
2022-08-28T08:08:19.972Z,26.93
2022-08-28T08:09:22.334Z,26.89
2022-08-28T08:10:24.113Z,26.91
2022-08-28T08:11:26.344Z,26.89
2022-08-28T08:12:34.761Z,26.89
2022-08-28T08:13:37.349Z,26.91
2022-08-28T08:14:40.488Z,26.91
2022-08-28T08:15:43.290Z,26.94
2022-08-28T08:16:45.648Z,27.00
2022-08-28T08:17:47.284Z,27.03
2022-08-28T08:18:49.304Z,27.10
2022-08-28T08:19:50.985Z,27.15
2022-08-28T08:20:52.654Z,27.23
2022-08-28T08:21:55.360Z,27.23
2022-08-28T08:22:57.188Z,27.18
2022-08-28T08:23:58.991Z,27.14
2022-08-28T08:25:00.865Z,27.10
2022-08-28T08:26:05.444Z,27.06
2022-08-28T08:27:07.086Z,27.04
2022-08-28T08:28:08.743Z,27.06
2022-08-28T08:29:13.252Z,27.01
2022-08-28T08:30:14.924Z,27.06
2022-08-28T08:31:17.855Z,27.11
2022-08-28T08:32:19.511Z,27.15
2022-08-28T08:33:21.177Z,27.10
2022-08-28T08:34:22.783Z,27.15
2022-08-28T08:35:24.410Z,27.21
2022-08-28T08:36:26.508Z,27.26
2022-08-28T08:37:28.152Z,27.30
2022-08-28T08:38:30.745Z,27.35
2022-08-28T08:39:33.639Z,27.38
2022-08-28T08:40:35.789Z,27.42
2022-08-28T08:41:48.166Z,27.40
2022-08-28T08:42:55.668Z,27.33
2022-08-28T08:44:16.068Z,27.41
2022-08-28T08:45:18.041Z,27.44
2022-08-28T08:46:20.739Z,27.42
2022-08-28T08:47:28.436Z,27.41
2022-08-28T08:48:34.109Z,27.47
2022-08-28T08:49:38.065Z,27.47
2022-08-28T08:50:39.726Z,27.51
2022-08-28T08:51:44.392Z,27.48
2022-08-28T08:52:48.946Z,27.51
2022-08-28T08:54:05.199Z,27.50
2022-08-28T08:55:06.831Z,27.50
2022-08-28T08:56:08.470Z,27.52
2022-08-28T08:57:11.265Z,27.52
2022-08-28T08:58:22.372Z,27.59
2022-08-28T08:59:26.149Z,27.61
2022-08-28T09:00:28.846Z,27.66
2022-08-28T09:01:55.386Z,27.71
2022-08-28T09:03:03.095Z,27.57
2022-08-28T09:04:34.977Z,27.62
2022-08-28T09:05:41.904Z,27.62
2022-08-28T09:06:51.598Z,27.65
2022-08-28T09:08:01.531Z,27.69
2022-08-28T09:09:05.289Z,27.75
2022-08-28T09:10:11.100Z,27.82
2022-08-28T09:11:35.789Z,27.91
2022-08-28T09:12:42.936Z,27.88
2022-08-28T09:13:55.115Z,27.85
2022-08-28T09:15:10.153Z,27.91
2022-08-28T09:16:21.154Z,27.95
2022-08-28T09:17:24.427Z,28.01
2022-08-28T09:18:28.066Z,28.01
2022-08-28T09:19:29.924Z,28.05
2022-08-28T09:20:33.294Z,28.05
2022-08-28T09:21:38.850Z,28.05
2022-08-28T09:22:44.660Z,28.01
2022-08-28T09:23:46.908Z,28.02
2022-08-28T09:24:48.570Z,28.03
2022-08-28T09:26:01.862Z,28.08
2022-08-28T09:27:12.327Z,28.09
2022-08-28T09:28:29.022Z,28.09
2022-08-28T09:29:35.792Z,28.12
2022-08-28T09:30:37.856Z,28.14
2022-08-28T09:31:41.247Z,28.13
2022-08-28T09:32:44.690Z,28.19
2022-08-28T09:33:49.102Z,28.20
2022-08-28T09:35:12.699Z,28.26
2022-08-28T09:36:23.687Z,28.32
2022-08-28T09:37:26.196Z,28.32
2022-08-28T09:38:28.144Z,28.39
2022-08-28T09:39:33.903Z,28.43
2022-08-28T09:40:54.458Z,28.37
2022-08-28T09:42:32.954Z,28.44
2022-08-28T09:43:36.710Z,28.44
2022-08-28T09:44:56.328Z,28.50
2022-08-28T09:46:00.076Z,28.52
2022-08-28T09:47:02.484Z,28.52
2022-08-28T09:48:09.515Z,28.49
2022-08-28T09:49:12.678Z,28.53
2022-08-28T09:50:15.075Z,28.53
2022-08-28T09:51:22.589Z,28.53
2022-08-28T09:52:25.352Z,28.53
2022-08-28T09:53:29.220Z,28.56
2022-08-28T09:54:32.293Z,28.59
2022-08-28T09:55:43.796Z,28.60
2022-08-28T09:56:45.430Z,28.61
2022-08-28T09:57:48.310Z,28.67
2022-08-28T09:58:56.330Z,28.73
2022-08-28T09:59:57.933Z,28.78
2022-08-28T10:01:08.915Z,28.80
2022-08-28T10:02:46.186Z,28.87
2022-08-28T10:03:59.929Z,28.88
2022-08-28T10:05:06.856Z,28.87
2022-08-28T10:06:23.833Z,28.88
2022-08-28T10:07:44.888Z,28.86
2022-08-28T10:09:10.928Z,28.93
2022-08-28T10:10:21.220Z,28.98
2022-08-28T10:11:32.977Z,28.98
2022-08-28T10:12:52.879Z,29.01
2022-08-28T10:14:01.353Z,29.01
2022-08-28T10:15:30.862Z,29.03
2022-08-28T10:16:43.189Z,29.03
2022-08-28T10:17:56.428Z,29.05
2022-08-28T10:19:10.178Z,29.04
2022-08-28T10:20:23.447Z,29.05
2022-08-28T10:22:00.950Z,29.08
2022-08-28T10:23:09.251Z,29.03
2022-08-28T10:24:26.815Z,29.03
2022-08-28T10:25:51.756Z,29.11
2022-08-28T10:27:11.783Z,29.12
2022-08-28T10:28:19.576Z,29.10
2022-08-28T10:29:32.458Z,29.12
2022-08-28T10:30:36.335Z,29.11
2022-08-28T10:31:47.812Z,29.12
2022-08-28T10:33:18.569Z,29.01
2022-08-28T10:34:38.465Z,28.94
2022-08-28T10:36:00.564Z,28.97
2022-08-28T10:37:25.093Z,28.98
2022-08-28T10:38:58.862Z,28.98
2022-08-28T10:40:24.766Z,28.88
2022-08-28T10:41:38.754Z,28.88
2022-08-28T10:42:46.925Z,28.93
2022-08-28T10:43:50.213Z,28.93
2022-08-28T10:44:55.835Z,28.98
2022-08-28T10:46:05.916Z,29.05
2022-08-28T10:47:07.605Z,29.12
2022-08-28T10:48:27.031Z,29.22
2022-08-28T10:49:41.884Z,29.29
2022-08-28T10:50:48.392Z,29.31
2022-08-28T10:51:51.874Z,29.36
2022-08-28T10:53:00.322Z,29.29
2022-08-28T10:54:07.501Z,29.35
2022-08-28T10:55:34.612Z,29.31
2022-08-28T10:56:44.391Z,29.32
2022-08-28T10:57:53.663Z,29.35
2022-08-28T10:58:59.033Z,29.36
2022-08-28T11:00:04.036Z,29.41
2022-08-28T11:01:09.002Z,29.46
2022-08-28T11:02:11.535Z,29.49
2022-08-28T11:03:32.979Z,29.49
2022-08-28T11:04:35.858Z,29.39
2022-08-28T11:05:40.982Z,29.36
2022-08-28T11:06:48.177Z,29.45
2022-08-28T11:07:52.646Z,29.46
2022-08-28T11:08:57.097Z,29.55
2022-08-28T11:10:17.379Z,29.61
2022-08-28T11:11:44.314Z,29.70
2022-08-28T11:12:45.983Z,29.75
2022-08-28T11:13:57.799Z,29.75
2022-08-28T11:14:59.428Z,29.77
2022-08-28T11:16:01.152Z,29.79
2022-08-28T11:17:10.584Z,29.85
2022-08-28T11:18:15.962Z,29.89
2022-08-28T11:19:29.695Z,29.77
2022-08-28T11:20:31.391Z,29.70
2022-08-28T11:21:36.693Z,29.69
2022-08-28T11:22:48.982Z,29.55
2022-08-28T11:24:35.145Z,29.61
2022-08-28T11:25:55.394Z,29.55
2022-08-28T11:27:16.995Z,29.69
2022-08-28T11:28:24.758Z,29.79
2022-08-28T11:30:01.414Z,29.86
2022-08-28T11:31:05.965Z,29.96
2022-08-28T11:32:28.811Z,29.80
2022-08-28T11:33:42.834Z,29.79
2022-08-28T11:34:57.602Z,29.63
2022-08-28T11:35:59.236Z,29.62
2022-08-28T11:37:01.441Z,29.58
2022-08-28T11:38:03.186Z,29.51
2022-08-28T11:39:17.844Z,29.45
2022-08-28T11:40:28.509Z,29.28
2022-08-28T11:41:38.637Z,29.35
2022-08-28T11:42:40.327Z,29.39
2022-08-28T11:43:43.795Z,29.38
2022-08-28T11:44:46.086Z,29.41
2022-08-28T11:45:50.557Z,29.36
2022-08-28T11:46:53.144Z,29.35
2022-08-28T11:47:56.858Z,29.36
2022-08-28T11:48:59.777Z,29.36
2022-08-28T11:50:24.004Z,29.32
2022-08-28T11:51:45.857Z,29.36
2022-08-28T11:53:13.752Z,29.25
2022-08-28T11:54:29.008Z,29.31
2022-08-28T11:55:49.174Z,29.39
2022-08-28T11:57:17.326Z,29.44
2022-08-28T11:58:34.001Z,29.45
2022-08-28T12:00:05.567Z,29.45
2022-08-28T12:01:09.099Z,29.52
2022-08-28T12:02:39.190Z,29.49
2022-08-28T12:03:41.730Z,29.54
2022-08-28T12:04:43.427Z,29.59
2022-08-28T12:05:47.077Z,29.59
2022-08-28T12:06:50.613Z,29.63
2022-08-28T12:07:52.246Z,29.65
2022-08-28T12:08:56.429Z,29.63
2022-08-28T12:10:02.925Z,29.44
2022-08-28T12:11:06.594Z,29.45
2022-08-28T12:12:23.299Z,29.29
2022-08-28T12:13:48.795Z,29.26
2022-08-28T12:14:56.141Z,29.16
2022-08-28T12:16:07.391Z,29.21
2022-08-28T12:17:31.478Z,29.22
2022-08-28T12:18:39.428Z,29.29
2022-08-28T12:19:56.192Z,29.31
2022-08-28T12:21:06.421Z,29.29
2022-08-28T12:22:13.821Z,29.34
2022-08-28T12:23:30.300Z,29.34
2022-08-28T12:24:31.926Z,29.35
2022-08-28T12:25:42.314Z,29.38
2022-08-28T12:26:45.945Z,29.39
2022-08-28T12:27:48.371Z,29.44
2022-08-28T12:29:21.984Z,29.31
2022-08-28T12:30:48.827Z,29.32
2022-08-28T12:32:14.965Z,29.25
2022-08-28T12:33:38.965Z,29.31
2022-08-28T12:34:45.718Z,29.31
2022-08-28T12:35:47.474Z,29.35
2022-08-28T12:36:59.239Z,29.36
2022-08-28T12:38:02.904Z,29.39
2022-08-28T12:39:04.543Z,29.42
2022-08-28T12:40:37.966Z,29.48
2022-08-28T12:41:39.922Z,29.56
2022-08-28T12:42:56.033Z,29.52
2022-08-28T12:43:58.272Z,29.54
2022-08-28T12:45:05.361Z,29.52
2022-08-28T12:46:19.493Z,29.49
2022-08-28T12:47:23.752Z,29.38
2022-08-28T12:48:32.452Z,29.39
2022-08-28T12:49:35.758Z,29.29
2022-08-28T12:50:38.738Z,29.32
2022-08-28T12:51:40.374Z,29.31
2022-08-28T12:52:51.817Z,29.34
2022-08-28T12:53:55.500Z,29.35
2022-08-28T12:54:58.276Z,29.38
2022-08-28T12:55:59.894Z,29.45
2022-08-28T12:57:05.012Z,29.48
2022-08-28T12:58:31.954Z,29.54
2022-08-28T12:59:41.799Z,29.52
2022-08-28T13:00:53.166Z,29.52
2022-08-28T13:01:55.016Z,29.49
2022-08-28T13:02:56.787Z,29.45
2022-08-28T13:04:01.998Z,29.45
2022-08-28T13:05:06.309Z,29.46
2022-08-28T13:06:09.387Z,29.44
2022-08-28T13:07:13.378Z,29.49
2022-08-28T13:08:15.843Z,29.49
2022-08-28T13:09:19.021Z,29.55
2022-08-28T13:10:47.405Z,29.55
2022-08-28T13:11:50.128Z,29.59
2022-08-28T13:13:04.795Z,29.48
2022-08-28T13:14:08.569Z,29.51
2022-08-28T13:15:10.608Z,29.46
2022-08-28T13:16:13.995Z,29.49
2022-08-28T13:17:17.528Z,29.51
2022-08-28T13:18:45.237Z,29.54
2022-08-28T13:19:46.926Z,29.39
2022-08-28T13:20:48.594Z,29.39
2022-08-28T13:22:00.418Z,29.38
2022-08-28T13:23:02.134Z,29.35
2022-08-28T13:24:22.222Z,29.39
2022-08-28T13:25:26.423Z,29.32
2022-08-28T13:26:29.712Z,29.36
2022-08-28T13:27:31.419Z,29.39
2022-08-28T13:28:36.996Z,29.48
2022-08-28T13:30:08.891Z,29.45
2022-08-28T13:31:41.142Z,29.49
2022-08-28T13:32:42.767Z,29.51
2022-08-28T13:34:04.792Z,29.55
2022-08-28T13:35:25.645Z,29.55
2022-08-28T13:36:27.272Z,29.55
2022-08-28T13:37:59.463Z,29.52
2022-08-28T13:39:01.083Z,29.52
2022-08-28T13:40:08.104Z,29.56
2022-08-28T13:41:12.566Z,29.56
2022-08-28T13:42:14.570Z,29.59
2022-08-28T13:43:16.411Z,29.61
2022-08-28T13:44:27.085Z,29.54
2022-08-28T13:45:31.607Z,29.54
2022-08-28T13:46:45.320Z,29.52
2022-08-28T13:47:47.009Z,29.54
2022-08-28T13:48:48.617Z,29.58
2022-08-28T13:49:50.253Z,29.59
2022-08-28T13:51:10.285Z,29.62
2022-08-28T13:52:12.388Z,29.46
2022-08-28T13:53:15.520Z,29.52
2022-08-28T13:54:17.161Z,29.45
2022-08-28T13:55:21.707Z,29.45
2022-08-28T13:56:25.590Z,29.46
2022-08-28T13:57:27.963Z,29.46
2022-08-28T13:58:29.681Z,29.49
2022-08-28T13:59:31.397Z,29.51
2022-08-28T14:00:36.238Z,29.52
2022-08-28T14:01:58.083Z,29.49
2022-08-28T14:03:18.352Z,29.48
2022-08-28T14:04:19.964Z,29.54
2022-08-28T14:05:21.646Z,29.54